createdAt,value
2022-09-05T00:01:46.560Z,8.53
2022-09-05T00:04:24.170Z,7.40
2022-09-05T00:07:02.944Z,7.50
2022-09-05T00:10:11.715Z,7.15
2022-09-05T00:12:39.715Z,7.37
2022-09-05T00:15:28.283Z,8.40
2022-09-05T00:23:47.105Z,7.80
2022-09-05T00:24:26.948Z,8.70
2022-09-05T00:24:42.339Z,9.27
2022-09-05T00:27:20.544Z,9.23
2022-09-05T00:31:07.269Z,9.20
2022-09-05T00:33:21.947Z,9.17
2022-09-05T00:35:48.940Z,8.80
2022-09-05T00:38:19.600Z,10.73
2022-09-05T00:40:56.576Z,8.77
2022-09-05T00:43:37.952Z,8.37
2022-09-05T00:46:13.710Z,8.73
2022-09-05T00:49:17.274Z,9.23
2022-09-05T00:51:50.251Z,9.10
2022-09-05T00:54:40.992Z,8.70
2022-09-05T00:57:17.993Z,9.43
2022-09-05T01:00:06.280Z,10.03
2022-09-05T01:03:09.793Z,9.83
2022-09-05T01:05:49.323Z,8.87
2022-09-05T01:08:53.645Z,8.77
2022-09-05T01:11:39.815Z,8.77
2022-09-05T01:14:38.678Z,9.40
2022-09-05T01:17:36.753Z,9.17
2022-09-05T01:20:25.874Z,9.13
2022-09-05T01:23:12.359Z,9.97
2022-09-05T01:26:16.846Z,9.20
2022-09-05T01:29:15.662Z,8.63
2022-09-05T01:32:12.324Z,9.10
2022-09-05T01:34:54.653Z,8.37
2022-09-05T01:37:40.554Z,7.60
2022-09-05T01:40:30.265Z,7.60
2022-09-05T01:43:33.827Z,8.40
2022-09-05T01:46:39.120Z,7.60
2022-09-05T01:49:33.326Z,8.87
2022-09-05T01:52:35.076Z,8.50
2022-09-05T01:55:24.579Z,10.17
2022-09-05T01:58:19.224Z,8.87
2022-09-05T02:00:49.190Z,8.40
2022-09-05T02:03:40.099Z,9.07
2022-09-05T02:06:34.230Z,8.30
2022-09-05T02:09:28.585Z,8.00
2022-09-05T02:12:02.068Z,7.87
2022-09-05T02:14:54.624Z,8.17
2022-09-05T02:17:50.554Z,9.27
2022-09-05T02:20:23.921Z,9.17
2022-09-05T02:23:27.341Z,9.00
2022-09-05T02:26:16.399Z,8.20
2022-09-05T02:28:56.280Z,7.90
2022-09-05T02:31:49.623Z,7.83
2022-09-05T02:34:31.305Z,7.20
2022-09-05T02:37:06.359Z,7.33
2022-09-05T02:45:03.579Z,8.03
2022-09-05T02:45:15.327Z,7.03
2022-09-05T02:45:51.669Z,7.23
2022-09-05T02:48:44.959Z,7.63
2022-09-05T02:51:45.194Z,6.63
2022-09-05T02:57:33.269Z,7.40
2022-09-05T02:58:04.606Z,6.37
2022-09-05T03:00:22.109Z,6.47
2022-09-05T03:03:29.198Z,6.67
2022-09-05T03:06:13.404Z,6.37
2022-09-05T03:08:49.618Z,5.90
2022-09-05T03:11:49.194Z,5.77
2022-09-05T03:14:51.683Z,7.80
2022-09-05T03:17:43.099Z,7.10
2022-09-05T03:20:38.196Z,6.73
2022-09-05T03:23:33.090Z,6.50
2022-09-05T03:26:38.789Z,7.40
2022-09-05T03:29:11.674Z,6.90
2022-09-05T03:31:52.560Z,7.13
2022-09-05T03:34:50.914Z,6.93
2022-09-05T03:37:51.653Z,6.83
2022-09-05T03:40:39.743Z,7.00
2022-09-05T03:43:39.314Z,6.63
2022-09-05T03:46:46.043Z,6.87
2022-09-05T03:50:25.867Z,6.57
2022-09-05T03:57:06.779Z,6.10
2022-09-05T03:57:13.961Z,6.03
2022-09-05T03:59:15.274Z,6.27
2022-09-05T04:06:13.752Z,6.87
2022-09-05T04:08:31.356Z,8.00
2022-09-05T04:11:01.935Z,9.03
2022-09-05T04:13:55.719Z,8.27
2022-09-05T04:16:31.455Z,7.50
2022-09-05T04:19:28.635Z,7.23
2022-09-05T04:22:26.904Z,7.10
2022-09-05T04:25:16.094Z,7.70
2022-09-05T04:28:22.708Z,7.00
2022-09-05T04:31:11.560Z,6.47
2022-09-05T04:34:14.684Z,7.77
2022-09-05T04:36:45.720Z,7.10
2022-09-05T04:39:22.733Z,7.30
2022-09-05T04:42:19.595Z,7.13
2022-09-05T04:45:11.864Z,6.80
2022-09-05T04:47:45.114Z,6.67
2022-09-05T04:50:25.638Z,6.93
2022-09-05T04:53:14.795Z,6.80
2022-09-05T04:55:52.252Z,7.13
2022-09-05T04:59:55.277Z,7.03
2022-09-05T05:06:06.029Z,7.10
2022-09-05T05:07:29.066Z,6.87
2022-09-05T05:11:21.306Z,6.97
2022-09-05T05:17:56.643Z,6.50
2022-09-05T05:18:15.331Z,6.40
2022-09-05T05:19:30.538Z,7.03
2022-09-05T05:22:06.142Z,6.28
2022-09-05T05:24:37.608Z,9.98
2022-09-05T05:27:52.859Z,6.37
2022-09-05T05:30:32.910Z,6.53
2022-09-05T05:33:10.278Z,6.38
2022-09-05T05:35:47.890Z,7.37
2022-09-05T05:38:26.776Z,6.70
2022-09-05T05:41:19.930Z,6.65
2022-09-05T05:46:37.594Z,7.38
2022-09-05T05:49:34.289Z,5.88
2022-09-05T05:52:03.199Z,5.63
2022-09-05T05:54:47.333Z,5.57
2022-09-05T05:57:49.084Z,5.80
2022-09-05T06:00:27.935Z,4.80
2022-09-05T06:03:26.778Z,5.35
2022-09-05T06:06:36.949Z,6.53
2022-09-05T06:13:30.551Z,6.07
2022-09-05T06:15:00.910Z,5.97
2022-09-05T06:15:53.170Z,6.43
2022-09-05T06:19:02.416Z,5.57
2022-09-05T06:28:18.590Z,5.72
2022-09-05T06:31:29.071Z,5.55
2022-09-05T06:34:00.293Z,5.95
2022-09-05T06:37:09.094Z,5.18
2022-09-05T06:39:48.276Z,5.28
2022-09-05T06:42:54.434Z,7.18
2022-09-05T06:45:29.237Z,5.05
2022-09-05T06:48:44.674Z,5.75
2022-09-05T06:51:37.282Z,5.32
2022-09-05T06:54:29.944Z,5.65
2022-09-05T06:57:20.583Z,5.18
2022-09-05T07:00:05.045Z,5.75
2022-09-05T07:02:59.219Z,5.75
2022-09-05T07:05:44.467Z,5.72
2022-09-05T07:08:34.827Z,5.82
2022-09-05T07:11:16.859Z,5.25
2022-09-05T07:14:13.445Z,5.97
2022-09-05T07:16:50.019Z,6.00
2022-09-05T07:19:27.899Z,6.22
2022-09-05T07:21:54.979Z,5.75
2022-09-05T07:24:45.605Z,5.70
2022-09-05T07:28:26.961Z,5.45
2022-09-05T07:30:33.874Z,5.35
2022-09-05T07:33:04.032Z,5.78
2022-09-05T07:35:41.774Z,5.38
2022-09-05T07:38:21.355Z,5.95
2022-09-05T07:41:27.011Z,5.78
2022-09-05T07:43:59.453Z,5.97
2022-09-05T07:46:57.588Z,4.97
2022-09-05T07:49:31.653Z,5.60
2022-09-05T07:56:50.218Z,4.97
2022-09-05T07:57:09.782Z,5.25
2022-09-05T07:57:51.251Z,4.60
2022-09-05T08:00:26.670Z,5.47
2022-09-05T08:03:01.434Z,4.97
2022-09-05T08:08:25.591Z,6.65
2022-09-05T08:11:24.576Z,5.28
2022-09-05T08:14:35.477Z,5.63
2022-09-05T08:16:54.610Z,5.20
2022-09-05T08:19:39.934Z,5.72
2022-09-05T08:22:13.963Z,6.00
2022-09-05T08:25:01.210Z,5.72
2022-09-05T08:28:22.757Z,5.60
2022-09-05T08:31:07.634Z,5.82
2022-09-05T08:33:58.264Z,5.60
2022-09-05T08:36:29.994Z,6.30
2022-09-05T08:39:02.570Z,6.00
2022-09-05T08:41:51.048Z,6.10
2022-09-05T08:46:45.031Z,8.35
2022-09-05T08:47:49.518Z,6.05
2022-09-05T08:50:27.034Z,6.18
2022-09-05T08:53:26.317Z,5.43
2022-09-05T08:56:17.053Z,5.95
2022-09-05T08:59:28.180Z,5.30
2022-09-05T09:02:44.576Z,5.45
2022-09-05T09:05:14.218Z,5.60
2022-09-05T09:11:39.855Z,6.00
2022-09-05T09:14:42.196Z,6.03
2022-09-05T09:17:24.861Z,5.93
2022-09-05T09:20:28.621Z,6.40
2022-09-05T09:23:07.185Z,6.32
2022-09-05T09:26:06.471Z,6.28
2022-09-05T09:28:55.941Z,6.88
2022-09-05T09:31:47.694Z,7.78
2022-09-05T09:34:27.424Z,6.95
2022-09-05T09:41:00.805Z,6.70
2022-09-05T09:46:59.992Z,6.78
2022-09-05T09:49:53.686Z,6.57
2022-09-05T09:52:58.639Z,6.97
2022-09-05T09:56:06.787Z,6.35
2022-09-05T09:58:54.723Z,6.63
2022-09-05T10:02:07.328Z,6.85
2022-09-05T10:10:39.789Z,6.15
2022-09-05T10:11:22.521Z,6.82
2022-09-05T10:11:55.035Z,7.10
2022-09-05T10:14:49.090Z,6.35
2022-09-05T10:17:37.098Z,6.35
2022-09-05T10:20:11.777Z,7.03
2022-09-05T10:23:36.438Z,6.68
2022-09-05T10:26:38.798Z,6.95
2022-09-05T10:29:36.712Z,6.85
2022-09-05T10:35:11.522Z,6.93
2022-09-05T10:35:23.612Z,6.10
2022-09-05T10:37:57.671Z,6.80
2022-09-05T10:40:27.810Z,6.43
2022-09-05T10:43:15.500Z,7.25
2022-09-05T10:46:46.712Z,6.53
2022-09-05T10:49:11.156Z,6.50
2022-09-05T10:51:58.322Z,6.10
2022-09-05T10:55:18.777Z,6.35
2022-09-05T10:58:08.524Z,6.25
2022-09-05T11:02:21.798Z,7.40
2022-09-05T11:04:03.397Z,6.50
2022-09-05T11:07:08.048Z,7.05
2022-09-05T11:10:05.664Z,7.15
2022-09-05T11:12:50.432Z,6.60
2022-09-05T11:15:30.551Z,7.10
2022-09-05T11:18:09.744Z,7.47
2022-09-05T11:21:08.716Z,7.85
2022-09-05T11:23:56.746Z,7.90
2022-09-05T11:27:24.545Z,7.55
2022-09-05T11:29:52.409Z,7.05
2022-09-05T11:36:56.801Z,7.55
2022-09-05T11:39:53.549Z,7.00
2022-09-05T11:40:02.933Z,7.93
2022-09-05T11:42:06.852Z,7.15
2022-09-05T11:44:53.584Z,7.47
2022-09-05T11:47:44.079Z,7.95
2022-09-05T11:50:17.405Z,7.65
2022-09-05T11:56:54.749Z,7.95
2022-09-05T12:00:32.017Z,7.80
2022-09-05T12:03:58.990Z,7.75
2022-09-05T12:06:55.083Z,7.03
2022-09-05T12:09:53.546Z,8.45
2022-09-05T12:12:56.539Z,7.43
2022-09-05T12:18:24.140Z,7.60
2022-09-05T12:21:39.110Z,7.95
2022-09-05T12:25:25.700Z,7.00
2022-09-05T12:27:38.042Z,7.10
2022-09-05T12:30:07.604Z,7.35
2022-09-05T12:36:08.710Z,8.15
2022-09-05T12:40:38.425Z,8.35
2022-09-05T12:41:36.612Z,8.18
2022-09-05T12:42:40.637Z,7.70
2022-09-05T12:45:43.689Z,7.65
2022-09-05T12:48:38.458Z,8.02
2022-09-05T12:51:46.081Z,8.40
2022-09-05T12:54:33.601Z,7.78
2022-09-05T13:00:27.627Z,8.85
2022-09-05T13:02:59.121Z,8.40
2022-09-05T13:03:53.474Z,7.72
2022-09-05T13:06:39.593Z,8.95
2022-09-05T13:09:21.540Z,8.85
2022-09-05T13:14:59.830Z,9.18
2022-09-05T13:15:23.257Z,9.10
2022-09-05T13:18:10.719Z,8.55
2022-09-05T13:20:47.947Z,8.38
2022-09-05T13:23:37.461Z,8.85
2022-09-05T13:26:24.722Z,8.82
2022-09-05T13:29:25.555Z,7.70
2022-09-05T13:38:01.200Z,7.43
2022-09-05T13:38:10.925Z,8.07
2022-09-05T13:41:05.979Z,7.70
2022-09-05T13:43:53.845Z,7.20
2022-09-05T13:46:39.382Z,8.00
2022-09-05T13:49:25.027Z,6.93
2022-09-05T13:52:10.229Z,6.55
2022-09-05T13:54:42.443Z,6.50
2022-09-05T13:57:48.785Z,6.90
2022-09-05T14:00:28.961Z,6.55
2022-09-05T14:03:38.997Z,6.65
2022-09-05T14:06:51.268Z,7.00
2022-09-05T14:09:46.155Z,6.55
2022-09-05T14:12:21.777Z,6.43
2022-09-05T14:15:19.713Z,6.90
2022-09-05T14:17:54.844Z,7.15
2022-09-05T14:20:49.728Z,7.20
2022-09-05T14:23:20.652Z,6.63
2022-09-05T14:25:59.925Z,6.25
2022-09-05T14:29:14.566Z,6.35
2022-09-05T14:37:46.202Z,7.28
2022-09-05T14:37:49.292Z,7.15
2022-09-05T14:38:15.663Z,7.03
2022-09-05T14:41:02.910Z,6.88
2022-09-05T14:43:56.633Z,6.85
2022-09-05T14:46:33.617Z,8.07
2022-09-05T14:49:12.970Z,7.05
2022-09-05T14:51:46.886Z,6.88
2022-09-05T15:00:52.423Z,7.28
2022-09-05T15:02:41.494Z,6.32
2022-09-05T15:03:03.949Z,7.13
2022-09-05T15:05:41.397Z,7.70
2022-09-05T15:09:50.952Z,7.20
2022-09-05T15:12:21.982Z,7.55
2022-09-05T15:14:07.630Z,7.80
2022-09-05T15:16:43.825Z,7.47
2022-09-05T15:19:11.961Z,8.10
2022-09-05T15:21:42.290Z,7.65
2022-09-05T15:24:24.435Z,7.60
2022-09-05T15:26:54.056Z,8.15
2022-09-05T15:29:30.291Z,9.07
2022-09-05T15:32:26.407Z,9.02
2022-09-05T15:34:55.935Z,8.82
2022-09-05T15:37:43.459Z,9.93
2022-09-05T15:40:23.191Z,8.73
2022-09-05T15:43:01.966Z,9.52
2022-09-05T15:45:36.170Z,9.30
2022-09-05T15:48:16.643Z,9.35
2022-09-05T15:50:52.733Z,10.32
2022-09-05T15:53:35.704Z,9.82
2022-09-05T15:56:12.912Z,10.77
2022-09-05T15:58:53.472Z,9.82
2022-09-05T16:01:58.313Z,9.90
2022-09-05T16:06:48.397Z,9.55
2022-09-05T16:10:37.975Z,10.43
2022-09-05T16:13:51.863Z,10.57
2022-09-05T16:23:16.095Z,10.70
2022-09-05T16:23:23.944Z,10.38
2022-09-05T16:23:27.785Z,9.95
2022-09-05T16:25:01.238Z,10.75
2022-09-05T16:28:06.699Z,11.07
2022-09-05T16:30:38.204Z,10.82
2022-09-05T16:33:05.759Z,12.10
2022-09-05T16:35:45.830Z,11.27
2022-09-05T16:38:49.188Z,10.93
2022-09-05T16:41:33.509Z,11.18
2022-09-05T16:44:12.563Z,11.38
2022-09-05T16:46:51.264Z,11.50
2022-09-05T16:49:42.208Z,11.45
2022-09-05T16:52:17.047Z,12.25
2022-09-05T16:54:49.119Z,11.38
2022-09-05T16:57:33.044Z,11.82
2022-09-05T17:00:02.399Z,12.10
2022-09-05T17:02:34.726Z,12.25
2022-09-05T17:05:58.045Z,11.43
2022-09-05T17:08:36.606Z,12.25
2022-09-05T17:11:12.288Z,11.98
2022-09-05T17:13:55.808Z,12.73
2022-09-05T17:16:35.097Z,12.68
2022-09-05T17:19:03.161Z,13.07
2022-09-05T17:23:42.882Z,12.63
2022-09-05T17:29:18.382Z,13.00
2022-09-05T17:29:27.608Z,13.43
2022-09-05T17:32:59.960Z,12.43
2022-09-05T17:35:42.975Z,13.15
2022-09-05T17:38:39.574Z,13.18
2022-09-05T17:41:22.164Z,13.80
2022-09-05T17:44:06.366Z,13.18
2022-09-05T17:46:41.884Z,13.63
2022-09-05T17:49:19.405Z,13.10
2022-09-05T17:52:19.451Z,12.63
2022-09-05T17:54:49.634Z,12.85
2022-09-05T17:57:30.288Z,13.00
2022-09-05T18:00:12.019Z,13.48
2022-09-05T18:02:57.384Z,13.48
2022-09-05T18:06:12.979Z,13.73
2022-09-05T18:08:46.849Z,13.73
2022-09-05T18:11:25.797Z,14.10
2022-09-05T18:14:01.509Z,14.73
2022-09-05T18:16:45.377Z,14.23
2022-09-05T18:19:46.725Z,14.57
2022-09-05T18:22:29.429Z,14.27
2022-09-05T18:25:30.762Z,13.55
2022-09-05T18:31:45.223Z,14.85
2022-09-05T18:34:31.341Z,14.32
2022-09-05T18:37:00.003Z,14.70
2022-09-05T18:39:29.370Z,15.15
2022-09-05T18:42:25.946Z,13.75
2022-09-05T18:45:03.749Z,14.07
2022-09-05T18:47:53.288Z,14.35
2022-09-05T18:50:32.789Z,14.35
2022-09-05T18:53:10.616Z,14.25
2022-09-05T18:56:20.420Z,13.95
2022-09-05T18:59:01.035Z,14.23
2022-09-05T19:02:33.389Z,14.75
2022-09-05T19:05:28.605Z,13.43
2022-09-05T19:08:08.894Z,15.63
2022-09-05T19:11:00.576Z,14.48
2022-09-05T19:13:38.523Z,14.15
2022-09-05T19:16:43.787Z,15.07
2022-09-05T19:19:24.672Z,13.82
2022-09-05T19:22:45.174Z,13.63
2022-09-05T19:24:45.574Z,13.77
2022-09-05T19:28:30.772Z,12.90
2022-09-05T19:36:46.079Z,14.48
2022-09-05T19:36:55.464Z,13.23
2022-09-05T19:37:08.888Z,14.23
2022-09-05T19:40:32.167Z,13.82
2022-09-05T19:47:47.690Z,13.63
2022-09-05T19:47:50.920Z,15.00
2022-09-05T19:48:03.888Z,15.27
2022-09-05T19:50:27.370Z,17.63
2022-09-05T19:53:07.645Z,16.60
2022-09-05T19:55:39.604Z,15.80
2022-09-05T19:58:33.089Z,13.80
2022-09-05T20:01:18.220Z,13.88
2022-09-05T20:03:52.855Z,11.95
2022-09-05T20:06:28.756Z,11.60
2022-09-05T20:09:10.664Z,12.18
2022-09-05T20:11:45.560Z,13.25
2022-09-05T20:14:40.271Z,15.63
2022-09-05T20:17:29.273Z,16.17
2022-09-05T20:20:13.625Z,17.95
2022-09-05T20:22:49.402Z,18.95
2022-09-05T20:25:36.229Z,17.45
2022-09-05T20:28:20.497Z,17.35
2022-09-05T20:31:01.146Z,17.40
2022-09-05T20:33:51.871Z,16.58
2022-09-05T20:43:10.320Z,16.35
2022-09-05T20:43:20.996Z,16.05
2022-09-05T20:43:27.533Z,15.40
2022-09-05T20:46:41.913Z,15.45
2022-09-05T20:54:07.871Z,14.80
2022-09-05T20:54:23.016Z,16.60
2022-09-05T20:54:34.634Z,18.95
2022-09-05T20:57:21.190Z,18.52
2022-09-05T20:59:49.331Z,18.58
2022-09-05T21:02:26.454Z,17.15
2022-09-05T21:05:20.804Z,18.10
2022-09-05T21:10:32.849Z,18.25
2022-09-05T21:13:25.463Z,18.30
2022-09-05T21:15:55.047Z,16.95
2022-09-05T21:18:42.931Z,16.33
2022-09-05T21:21:37.234Z,18.42
2022-09-05T21:24:15.955Z,18.15
2022-09-05T21:26:55.267Z,18.00
2022-09-05T21:29:33.631Z,18.95
2022-09-05T21:32:10.342Z,20.38
2022-09-05T21:35:00.860Z,18.83
2022-09-05T21:37:31.387Z,19.23
2022-09-05T21:40:03.682Z,18.42
2022-09-05T21:46:34.315Z,18.42
2022-09-05T21:47:41.437Z,17.85
2022-09-05T21:48:32.946Z,17.63
2022-09-05T21:51:13.106Z,18.60
2022-09-05T21:56:40.213Z,19.33
2022-09-05T21:59:20.061Z,19.90
2022-09-05T22:00:10.630Z,21.15
2022-09-05T22:02:41.917Z,20.25
2022-09-05T22:07:56.821Z,19.67
2022-09-05T22:13:15.536Z,20.80
2022-09-05T22:15:49.951Z,22.35
2022-09-05T22:18:20.085Z,20.67
2022-09-05T22:21:33.373Z,20.20
2022-09-05T22:24:03.117Z,19.30
2022-09-05T22:27:11.444Z,20.08
2022-09-05T22:29:39.562Z,20.20
2022-09-05T22:32:10.401Z,18.60
2022-09-05T22:34:40.780Z,18.95
2022-09-05T22:37:17.571Z,19.77
2022-09-05T22:39:45.536Z,20.58
2022-09-05T22:42:16.455Z,18.77
2022-09-05T22:44:46.520Z,18.00
2022-09-05T22:47:23.890Z,17.67
2022-09-05T22:49:54.551Z,17.77
2022-09-05T22:52:24.919Z,17.23
2022-09-05T22:54:54.345Z,18.35
2022-09-05T22:57:29.279Z,17.25
2022-09-05T22:59:57.440Z,16.13
2022-09-05T23:02:25.847Z,18.15
2022-09-05T23:07:43.039Z,18.65
2022-09-05T23:10:12.199Z,20.50
2022-09-05T23:12:42.344Z,16.35
2022-09-05T23:15:12.775Z,16.15
2022-09-05T23:17:41.199Z,15.55
2022-09-05T23:20:12.203Z,15.82
2022-09-05T23:22:42.819Z,15.38
2022-09-05T23:25:22.066Z,16.95
2022-09-05T23:27:51.270Z,17.55
2022-09-05T23:30:22.049Z,15.77
2022-09-05T23:32:56.299Z,15.85
2022-09-05T23:38:12.483Z,16.20
2022-09-05T23:40:42.289Z,15.57
2022-09-05T23:43:11.714Z,16.17
2022-09-05T23:45:40.157Z,14.20
2022-09-05T23:48:10.819Z,16.17
2022-09-05T23:50:39.154Z,15.25
2022-09-05T23:53:08.679Z,14.05
2022-09-05T23:55:37.054Z,13.35
2022-09-05T23:58:05.454Z,15.35
